Time;durP1;ratioP1;P1;durP2;ratioP2;P2;SDS_P1;SDS_P2;PMS_P1;PMS_P2;Temp;Humidity;BMP_temperature;BMP_pressure;BME280_temperature;BME280_humidity;BME280_pressure;Samples;Min_cycle;Max_cycle;Signal;HPM_P1;HPM_P2
2022/06/23 00:00:34;;;;;;;;;;;22.60;48.10;;;;;;5053223;28;19928;-56
2022/06/23 00:03:01;;;;;;;;;;;22.60;48.10;;;;;;5054889;28;19929;-57
2022/06/23 00:05:28;;;;;;;;;;;22.60;48.10;;;;;;5005178;28;1775531;-56
2022/06/23 00:07:57;;;;;;;;;;;22.60;48.10;;;;;;5068957;28;19974;-57
2022/06/23 00:10:24;;;;;;;;;;;22.60;48.10;;;;;;5072484;28;19932;-57
2022/06/23 00:12:51;;;;;;;;;;;22.60;48.10;;;;;;5066472;28;19929;-55
2022/06/23 00:15:20;;;;;;;;;;;22.60;48.20;;;;;;5056165;28;19925;-57
2022/06/23 00:17:48;;;;;;;;;;;22.60;48.20;;;;;;5055518;28;19979;-56
2022/06/23 00:20:17;;;;;;;;;;;22.60;48.20;;;;;;5068437;28;19978;-57
2022/06/23 00:22:44;;;;;;;;;;;22.60;48.20;;;;;;5067191;28;19977;-55
2022/06/23 00:25:26;;;;;;;;;;;22.60;48.20;;;;;;5062647;28;19939;-57
2022/06/23 00:27:53;;;;;;;;;;;22.60;48.20;;;;;;5068370;28;20336;-57
2022/06/23 00:30:21;;;;;;;;;;;22.60;48.30;;;;;;5066939;28;20432;-56
2022/06/23 00:32:48;;;;;;;;;;;22.60;48.30;;;;;;5065813;28;20035;-57
2022/06/23 00:35:15;;;;;;;;;;;22.60;48.30;;;;;;5057227;28;19932;-55
2022/06/23 00:37:44;;;;;;;;;;;22.60;48.30;;;;;;5066147;28;19982;-57
2022/06/23 00:40:13;;;;;;;;;;;22.60;48.30;;;;;;5063514;28;19932;-56
2022/06/23 00:42:40;;;;;;;;;;;22.60;48.40;;;;;;5062145;28;19928;-57
2022/06/23 00:45:08;;;;;;;;;;;22.60;48.40;;;;;;5069630;28;20027;-57
2022/06/23 00:47:36;;;;;;;;;;;22.60;48.40;;;;;;5070094;28;20487;-55
2022/06/23 00:50:04;;;;;;;;;;;22.60;48.50;;;;;;5066064;28;20019;-57
2022/06/23 00:52:32;;;;;;;;;;;22.60;48.50;;;;;;5073174;28;20020;-56
2022/06/23 00:55:00;;;;;;;;;;;22.60;48.50;;;;;;5059695;28;19924;-56
2022/06/23 00:57:30;;;;;;;;;;;22.60;48.50;;;;;;5058074;28;19928;-58
2022/06/23 00:59:58;;;;;;;;;;;22.60;48.50;;;;;;5068682;28;19994;-57
2022/06/23 01:02:26;;;;;;;;;;;22.60;48.50;;;;;;5071848;28;20023;-57
2022/06/23 01:04:55;;;;;;;;;;;22.60;48.50;;;;;;5070022;28;19978;-57
2022/06/23 01:07:26;;;;;;;;;;;22.60;48.60;;;;;;5069055;28;20382;-57
2022/06/23 01:09:53;;;;;;;;;;;22.60;48.60;;;;;;5078450;28;19930;-58
2022/06/23 01:12:22;;;;;;;;;;;22.60;48.60;;;;;;5088043;28;20297;-57
2022/06/23 01:14:51;;;;;;;;;;;22.60;48.60;;;;;;5070707;28;19982;-57
2022/06/23 01:17:18;;;;;;;;;;;22.60;48.60;;;;;;5055766;28;19931;-57
2022/06/23 01:20:10;;;;;;;;;;;22.60;48.70;;;;;;5081447;28;20383;-56
2022/06/23 01:22:52;;;;;;;;;;;22.60;48.70;;;;;;5056098;28;19929;-56
2022/06/23 01:25:24;;;;;;;;;;;22.60;48.70;;;;;;5071232;28;19967;-56
2022/06/23 01:27:55;;;;;;;;;;;22.60;48.70;;;;;;5056389;28;19924;-55
2022/06/23 01:30:35;;;;;;;;;;;22.60;48.70;;;;;;5068507;28;19935;-56
2022/06/23 01:33:04;;;;;;;;;;;22.60;48.70;;;;;;5070537;28;19977;-56
2022/06/23 01:35:32;;;;;;;;;;;22.60;48.70;;;;;;5069411;28;19924;-56
2022/06/23 01:37:59;;;;;;;;;;;22.60;48.70;;;;;;5087072;28;19924;-55
2022/06/23 01:40:27;;;;;;;;;;;22.60;48.70;;;;;;5066496;28;19929;-56
2022/06/23 01:42:57;;;;;;;;;;;22.60;48.70;;;;;;5068907;28;19924;-53
2022/06/23 01:45:25;;;;;;;;;;;22.60;48.70;;;;;;5070327;28;19995;-56
2022/06/23 01:47:53;;;;;;;;;;;22.60;48.70;;;;;;5053337;28;19943;-56
2022/06/23 01:50:36;;;;;;;;;;;22.60;48.70;;;;;;5087275;28;19978;-56
2022/06/23 01:53:04;;;;;;;;;;;22.60;48.80;;;;;;5067981;28;19939;-57
2022/06/23 01:55:31;;;;;;;;;;;22.60;48.80;;;;;;5062555;28;19931;-56
2022/06/23 01:58:02;;;;;;;;;;;22.60;48.80;;;;;;5059015;28;20019;-55
2022/06/23 02:00:28;;;;;;;;;;;22.60;48.80;;;;;;5068659;28;19928;-56
2022/06/23 02:03:15;;;;;;;;;;;22.60;48.80;;;;;;5065054;28;19936;-56
2022/06/23 02:05:49;;;;;;;;;;;22.60;48.80;;;;;;5056843;28;20027;-57
2022/06/23 02:08:25;;;;;;;;;;;22.60;48.80;;;;;;5051392;28;19925;-56
2022/06/23 02:10:53;;;;;;;;;;;22.60;48.80;;;;;;5070275;28;19928;-56
2022/06/23 02:13:22;;;;;;;;;;;22.60;48.80;;;;;;5059363;28;19952;-57
2022/06/23 02:15:51;;;;;;;;;;;22.60;48.80;;;;;;5065791;28;20027;-56
2022/06/23 02:18:19;;;;;;;;;;;22.50;48.70;;;;;;5059088;28;20027;-55
2022/06/23 02:20:48;;;;;;;;;;;22.60;48.80;;;;;;5069579;28;19926;-56
2022/06/23 02:23:18;;;;;;;;;;;22.60;48.80;;;;;;5053922;28;20057;-53
2022/06/23 02:25:48;;;;;;;;;;;22.60;48.80;;;;;;5066954;28;19935;-56
2022/06/23 02:28:17;;;;;;;;;;;22.60;48.90;;;;;;5050265;28;20348;-55
2022/06/23 02:30:45;;;;;;;;;;;22.60;48.90;;;;;;5050279;28;19933;-55
2022/06/23 02:33:14;;;;;;;;;;;22.60;48.90;;;;;;5066310;28;19981;-54
2022/06/23 02:35:42;;;;;;;;;;;22.50;48.90;;;;;;5062093;28;19932;-54
2022/06/23 02:38:09;;;;;;;;;;;22.50;48.90;;;;;;5066374;28;19932;-59
2022/06/23 02:40:37;;;;;;;;;;;22.50;48.80;;;;;;5066257;28;20023;-56
2022/06/23 02:43:05;;;;;;;;;;;22.60;48.90;;;;;;5070153;28;19936;-55
2022/06/23 02:45:42;;;;;;;;;;;22.60;48.90;;;;;;5064251;28;19924;-56
2022/06/23 02:48:15;;;;;;;;;;;22.60;48.90;;;;;;5072320;28;20005;-56
2022/06/23 02:50:45;;;;;;;;;;;22.50;48.90;;;;;;5077872;28;20349;-55
2022/06/23 02:53:17;;;;;;;;;;;22.50;48.90;;;;;;5062768;28;19928;-56
2022/06/23 02:55:46;;;;;;;;;;;22.50;48.90;;;;;;5053673;28;19924;-57
2022/06/23 02:58:14;;;;;;;;;;;22.50;48.90;;;;;;5086936;28;19925;-53
2022/06/23 03:00:41;;;;;;;;;;;22.50;49.00;;;;;;5068072;28;19929;-56
2022/06/23 03:03:09;;;;;;;;;;;22.60;49.00;;;;;;5066842;28;19931;-56
2022/06/23 03:05:39;;;;;;;;;;;22.60;49.00;;;;;;5069340;28;19954;-57
2022/06/23 03:08:07;;;;;;;;;;;22.50;49.00;;;;;;5068023;28;19954;-54
2022/06/23 03:10:36;;;;;;;;;;;22.50;49.00;;;;;;5055509;28;20337;-53
2022/06/23 03:13:07;;;;;;;;;;;22.50;49.00;;;;;;5065366;28;19948;-54
2022/06/23 03:15:35;;;;;;;;;;;22.50;49.00;;;;;;5064074;28;20010;-54
2022/06/23 03:18:04;;;;;;;;;;;22.50;49.00;;;;;;5056550;28;20325;-56
2022/06/23 03:20:37;;;;;;;;;;;22.50;49.00;;;;;;5051189;28;19935;-54
2022/06/23 03:23:07;;;;;;;;;;;22.50;49.00;;;;;;5066347;28;19924;-53
2022/06/23 03:25:35;;;;;;;;;;;22.50;49.00;;;;;;5060167;28;19931;-54
2022/06/23 03:28:02;;;;;;;;;;;22.50;49.00;;;;;;5068466;28;20301;-53
2022/06/23 03:30:31;;;;;;;;;;;22.50;49.00;;;;;;5067440;28;19929;-58
2022/06/23 03:32:59;;;;;;;;;;;22.50;49.00;;;;;;5065675;28;20304;-56
2022/06/23 03:35:27;;;;;;;;;;;22.50;49.00;;;;;;5050684;28;19925;-56
2022/06/23 03:37:58;;;;;;;;;;;22.50;49.10;;;;;;5052378;28;19948;-56
2022/06/23 03:43:13;;;;;;;;;;;22.50;49.10;;;;;;5067166;28;19947;-57
2022/06/23 03:45:41;;;;;;;;;;;22.50;49.40;;;;;;5055689;28;19925;-56
2022/06/23 03:48:08;;;;;;;;;;;22.50;49.10;;;;;;5064395;28;19925;-57
2022/06/23 03:50:36;;;;;;;;;;;22.50;49.10;;;;;;5060953;28;20028;-56
2022/06/23 03:53:03;;;;;;;;;;;22.50;49.10;;;;;;5068330;28;19925;-57
2022/06/23 03:55:31;;;;;;;;;;;22.50;49.10;;;;;;5070660;28;19928;-55
2022/06/23 03:57:59;;;;;;;;;;;22.50;49.20;;;;;;5083116;28;19971;-56
2022/06/23 04:00:35;;;;;;;;;;;22.50;49.20;;;;;;5067973;28;20336;-56
2022/06/23 04:03:05;;;;;;;;;;;22.50;49.20;;;;;;5065440;28;20309;-53
2022/06/23 04:05:48;;;;;;;;;;;22.50;49.20;;;;;;5054143;28;19990;-55
2022/06/23 04:08:14;;;;;;;;;;;22.50;49.20;;;;;;5055086;28;19928;-55
2022/06/23 04:10:43;;;;;;;;;;;22.50;49.20;;;;;;5072497;28;19924;-56
2022/06/23 04:13:13;;;;;;;;;;;22.50;49.20;;;;;;5066387;28;19932;-56
2022/06/23 04:15:40;;;;;;;;;;;22.50;49.20;;;;;;5069894;28;20019;-53
2022/06/23 04:18:08;;;;;;;;;;;22.50;49.20;;;;;;5054059;28;19967;-57
2022/06/23 04:20:36;;;;;;;;;;;22.50;49.20;;;;;;5055772;28;19929;-54
2022/06/23 04:23:04;;;;;;;;;;;22.50;49.30;;;;;;5070363;28;19925;-56
2022/06/23 04:25:33;;;;;;;;;;;22.50;49.20;;;;;;5055601;28;19971;-57
2022/06/23 04:28:01;;;;;;;;;;;22.50;49.20;;;;;;5052445;28;19928;-57
2022/06/23 04:30:30;;;;;;;;;;;22.50;49.30;;;;;;5069215;28;19928;-56
2022/06/23 04:32:57;;;;;;;;;;;22.50;49.30;;;;;;5056668;28;19975;-55
2022/06/23 04:35:26;;;;;;;;;;;22.50;49.30;;;;;;5069171;28;20365;-54
2022/06/23 04:37:55;;;;;;;;;;;22.50;49.30;;;;;;5064251;28;19925;-58
2022/06/23 04:40:23;;;;;;;;;;;22.50;49.40;;;;;;5087895;28;19927;-55
2022/06/23 04:42:51;;;;;;;;;;;22.50;49.40;;;;;;5087160;28;19936;-56
2022/06/23 04:45:33;;;;;;;;;;;22.50;49.40;;;;;;5086747;28;19973;-53
2022/06/23 04:48:00;;;;;;;;;;;22.50;49.50;;;;;;5068671;28;19932;-57
2022/06/23 04:50:35;;;;;;;;;;;22.50;49.50;;;;;;5062605;28;19936;-55
2022/06/23 04:53:02;;;;;;;;;;;22.50;49.50;;;;;;5065656;28;19921;-57
2022/06/23 04:55:29;;;;;;;;;;;22.50;49.50;;;;;;5070030;28;19920;-57
2022/06/23 04:57:56;;;;;;;;;;;22.50;49.50;;;;;;5057509;28;20429;-57
2022/06/23 05:00:24;;;;;;;;;;;22.50;49.50;;;;;;5069073;28;20028;-56
2022/06/23 05:02:53;;;;;;;;;;;22.50;49.60;;;;;;5070285;28;19921;-56
2022/06/23 05:05:20;;;;;;;;;;;22.50;49.60;;;;;;5066316;28;19925;-52
2022/06/23 05:07:47;;;;;;;;;;;22.40;49.50;;;;;;5050926;28;20428;-57
2022/06/23 05:10:16;;;;;;;;;;;22.40;49.50;;;;;;5079169;28;19960;-55
2022/06/23 05:12:43;;;;;;;;;;;22.50;49.60;;;;;;5061897;28;19936;-56
2022/06/23 05:15:13;;;;;;;;;;;22.40;49.40;;;;;;5068040;28;20415;-56
2022/06/23 05:17:41;;;;;;;;;;;22.40;49.50;;;;;;5061286;28;19925;-56
2022/06/23 05:20:18;;;;;;;;;;;22.50;49.50;;;;;;5060524;28;19928;-56
2022/06/23 05:22:45;;;;;;;;;;;22.50;49.50;;;;;;5074501;28;19940;-54
2022/06/23 05:25:22;;;;;;;;;;;22.40;49.40;;;;;;5060971;28;19921;-56
2022/06/23 05:27:49;;;;;;;;;;;22.50;49.60;;;;;;5057965;28;19927;-55
2022/06/23 05:30:23;;;;;;;;;;;22.50;49.60;;;;;;5060939;28;20003;-57
2022/06/23 05:32:51;;;;;;;;;;;22.40;49.50;;;;;;5057236;28;20028;-56
2022/06/23 05:35:21;;;;;;;;;;;22.40;49.60;;;;;;5062700;28;20258;-58
2022/06/23 05:37:49;;;;;;;;;;;22.40;49.50;;;;;;5053153;28;20304;-55
2022/06/23 05:40:21;;;;;;;;;;;22.40;49.60;;;;;;5063257;28;20376;-56
2022/06/23 05:42:49;;;;;;;;;;;22.40;49.60;;;;;;5066073;28;19986;-56
2022/06/23 05:45:17;;;;;;;;;;;22.40;49.60;;;;;;5057985;28;19925;-57
2022/06/23 05:47:43;;;;;;;;;;;22.40;49.60;;;;;;5060048;28;20015;-55
2022/06/23 05:50:18;;;;;;;;;;;22.40;49.60;;;;;;5075106;28;20545;-55
2022/06/23 05:52:47;;;;;;;;;;;22.40;49.60;;;;;;5074270;28;19966;-55
2022/06/23 05:55:15;;;;;;;;;;;22.40;49.60;;;;;;5061530;28;20149;-55
2022/06/23 05:57:42;;;;;;;;;;;22.40;49.60;;;;;;5056810;28;19927;-59
2022/06/23 06:00:14;;;;;;;;;;;22.40;50.20;;;;;;5071896;28;20415;-57
2022/06/23 06:02:43;;;;;;;;;;;22.40;49.60;;;;;;5060751;28;19926;-55
2022/06/23 06:05:10;;;;;;;;;;;22.40;49.60;;;;;;5052917;28;19932;-54
2022/06/23 06:07:38;;;;;;;;;;;22.40;49.60;;;;;;5064669;28;19978;-55
2022/06/23 06:10:12;;;;;;;;;;;22.40;49.60;;;;;;5068542;28;19927;-56
2022/06/23 06:12:40;;;;;;;;;;;22.40;49.60;;;;;;5058444;28;19952;-57
2022/06/23 06:15:08;;;;;;;;;;;22.50;49.70;;;;;;5065910;28;20002;-55
2022/06/23 06:17:35;;;;;;;;;;;22.50;49.70;;;;;;5061632;28;19924;-57
2022/06/23 06:20:02;;;;;;;;;;;22.40;49.60;;;;;;5064247;28;19928;-55
2022/06/23 06:22:56;;;;;;;;;;;22.40;49.50;;;;;;5062868;28;19920;-56
2022/06/23 06:25:25;;;;;;;;;;;22.40;49.50;;;;;;5026103;28;20339;-57
2022/06/23 06:27:52;;;;;;;;;;;22.40;49.60;;;;;;5063388;28;19920;-55
2022/06/23 06:30:20;;;;;;;;;;;22.40;49.50;;;;;;5060758;28;19983;-56
2022/06/23 06:32:47;;;;;;;;;;;22.50;49.60;;;;;;5062354;28;19945;-58
2022/06/23 06:35:15;;;;;;;;;;;22.40;49.50;;;;;;5076818;28;19991;-58
2022/06/23 06:37:43;;;;;;;;;;;22.40;49.50;;;;;;5059697;28;20295;-57
2022/06/23 06:40:09;;;;;;;;;;;22.40;49.50;;;;;;5063706;28;19920;-55
2022/06/23 06:42:40;;;;;;;;;;;22.40;49.50;;;;;;5059311;28;20312;-56
2022/06/23 06:45:08;;;;;;;;;;;22.40;49.50;;;;;;5058331;28;20020;-57
2022/06/23 06:47:35;;;;;;;;;;;22.50;49.60;;;;;;5046507;28;20021;-56
2022/06/23 06:50:05;;;;;;;;;;;22.50;49.60;;;;;;5062729;28;19955;-57
2022/06/23 06:52:32;;;;;;;;;;;22.50;49.60;;;;;;5059101;28;20042;-56
2022/06/23 06:54:59;;;;;;;;;;;22.40;49.50;;;;;;5057848;28;19943;-58
2022/06/23 06:57:27;;;;;;;;;;;22.50;49.60;;;;;;5065556;28;20005;-58
2022/06/23 06:59:57;;;;;;;;;;;22.50;49.70;;;;;;5062702;28;19927;-59
2022/06/23 07:02:28;;;;;;;;;;;22.50;49.60;;;;;;5056354;28;20349;-58
2022/06/23 07:04:56;;;;;;;;;;;22.50;49.70;;;;;;5065734;28;19920;-56
2022/06/23 07:07:24;;;;;;;;;;;22.50;49.70;;;;;;5064779;28;19921;-57
2022/06/23 07:09:53;;;;;;;;;;;22.50;49.70;;;;;;5060986;28;19928;-59
2022/06/23 07:12:20;;;;;;;;;;;22.50;49.70;;;;;;5078861;28;19920;-56
2022/06/23 07:14:49;;;;;;;;;;;22.50;49.70;;;;;;5064843;28;20350;-57
2022/06/23 07:17:19;;;;;;;;;;;22.50;49.60;;;;;;5056456;28;19959;-58
2022/06/23 07:19:47;;;;;;;;;;;22.50;49.60;;;;;;5063719;28;20257;-57
2022/06/23 07:22:15;;;;;;;;;;;22.50;49.60;;;;;;5066862;28;19946;-58
2022/06/23 07:24:43;;;;;;;;;;;22.50;49.60;;;;;;5058883;28;19954;-57
2022/06/23 07:27:12;;;;;;;;;;;22.50;49.50;;;;;;5066691;28;19974;-56
2022/06/23 07:29:40;;;;;;;;;;;22.50;49.50;;;;;;5077424;28;19950;-55
2022/06/23 07:32:11;;;;;;;;;;;22.60;49.60;;;;;;5069479;28;19963;-58
2022/06/23 07:34:40;;;;;;;;;;;22.60;49.50;;;;;;5058515;28;19927;-57
2022/06/23 07:37:11;;;;;;;;;;;22.60;49.50;;;;;;5065066;28;20059;-57
2022/06/23 07:39:38;;;;;;;;;;;22.60;49.50;;;;;;5070404;28;19978;-59
2022/06/23 07:42:06;;;;;;;;;;;22.60;49.50;;;;;;5076179;28;20415;-57
2022/06/23 07:44:34;;;;;;;;;;;22.60;49.40;;;;;;5075293;28;19924;-56
2022/06/23 07:47:01;;;;;;;;;;;22.60;49.40;;;;;;5075333;28;19955;-55
2022/06/23 07:49:28;;;;;;;;;;;22.60;49.40;;;;;;5065199;28;19936;-56
2022/06/23 07:51:56;;;;;;;;;;;22.60;49.40;;;;;;5062201;28;19921;-56
2022/06/23 07:54:23;;;;;;;;;;;22.70;49.60;;;;;;5065659;28;19966;-58
2022/06/23 07:56:50;;;;;;;;;;;22.60;49.40;;;;;;5075301;28;19924;-55
2022/06/23 07:59:17;;;;;;;;;;;22.70;49.50;;;;;;5054773;28;19920;-57
2022/06/23 08:01:45;;;;;;;;;;;22.70;49.50;;;;;;5069797;28;19920;-57
2022/06/23 08:04:13;;;;;;;;;;;22.70;49.50;;;;;;5076926;28;19921;-57
2022/06/23 08:06:40;;;;;;;;;;;22.70;49.50;;;;;;5075288;28;19928;-56
2022/06/23 08:09:16;;;;;;;;;;;22.70;49.50;;;;;;5064488;28;19920;-57
2022/06/23 08:14:29;;;;;;;;;;;22.70;49.50;;;;;;5064583;28;19920;-56
2022/06/23 08:16:55;;;;;;;;;;;22.70;49.50;;;;;;5067889;28;19951;-57
2022/06/23 08:19:27;;;;;;;;;;;22.70;49.50;;;;;;5060241;28;19921;-57
2022/06/23 08:21:55;;;;;;;;;;;22.70;49.50;;;;;;5069112;28;20057;-57
2022/06/23 08:24:23;;;;;;;;;;;22.70;49.60;;;;;;5062045;28;20350;-57
2022/06/23 08:26:52;;;;;;;;;;;22.70;49.50;;;;;;5065018;28;19967;-57
2022/06/23 08:29:20;;;;;;;;;;;22.70;49.50;;;;;;5066600;28;19940;-58
2022/06/23 08:31:47;;;;;;;;;;;22.70;49.60;;;;;;5070177;28;19920;-56
2022/06/23 08:34:14;;;;;;;;;;;22.80;49.70;;;;;;5073834;28;19966;-58
2022/06/23 08:36:41;;;;;;;;;;;22.80;49.70;;;;;;5070175;28;19985;-58
2022/06/23 08:39:08;;;;;;;;;;;22.80;49.60;;;;;;5069866;28;20363;-57
2022/06/23 08:41:37;;;;;;;;;;;22.80;49.70;;;;;;5066999;28;19971;-58
2022/06/23 08:44:05;;;;;;;;;;;22.80;49.70;;;;;;5075079;28;20339;-58
2022/06/23 08:46:32;;;;;;;;;;;22.80;49.80;;;;;;5062572;28;19920;-57
2022/06/23 08:49:01;;;;;;;;;;;22.80;49.80;;;;;;5076984;28;20015;-58
2022/06/23 08:51:31;;;;;;;;;;;22.80;49.80;;;;;;5068290;28;19939;-58
2022/06/23 08:54:00;;;;;;;;;;;22.80;49.80;;;;;;5065567;28;20011;-58
2022/06/23 08:56:28;;;;;;;;;;;22.80;49.80;;;;;;5050912;28;20479;-58
2022/06/23 08:58:59;;;;;;;;;;;22.90;49.90;;;;;;5067978;28;20018;-56
2022/06/23 09:01:27;;;;;;;;;;;22.80;49.70;;;;;;5064697;28;20552;-56
2022/06/23 09:03:56;;;;;;;;;;;22.90;49.90;;;;;;5069978;28;20240;-56
2022/06/23 09:06:26;;;;;;;;;;;22.90;49.90;;;;;;5071977;28;19934;-56
2022/06/23 09:08:54;;;;;;;;;;;22.90;49.90;;;;;;5065332;28;19952;-58
2022/06/23 09:11:22;;;;;;;;;;;22.90;49.90;;;;;;5069228;28;19921;-58
2022/06/23 09:13:54;;;;;;;;;;;22.90;49.90;;;;;;5060487;28;20332;-59
2022/06/23 09:16:36;;;;;;;;;;;22.90;49.90;;;;;;5088644;28;19928;-57
2022/06/23 09:19:08;;;;;;;;;;;22.90;49.90;;;;;;5064698;28;19936;-50
2022/06/23 09:21:39;;;;;;;;;;;22.90;50.00;;;;;;5059641;28;20030;-51
2022/06/23 09:24:16;;;;;;;;;;;22.90;50.00;;;;;;5075319;28;19920;-53
2022/06/23 09:26:45;;;;;;;;;;;22.90;50.10;;;;;;5059905;28;19921;-51
2022/06/23 09:29:13;;;;;;;;;;;22.90;50.00;;;;;;5058003;28;19936;-49
2022/06/23 09:31:43;;;;;;;;;;;22.90;49.90;;;;;;5057139;28;19964;-48
2022/06/23 09:34:13;;;;;;;;;;;23.00;50.00;;;;;;5056833;28;19921;-52
2022/06/23 09:36:59;;;;;;;;;;;22.90;49.90;;;;;;5066348;28;20023;-50
2022/06/23 09:39:40;;;;;;;;;;;22.90;49.90;;;;;;5066682;28;19927;-51
2022/06/23 09:42:11;;;;;;;;;;;23.00;49.90;;;;;;5068780;28;19920;-59
2022/06/23 09:44:48;;;;;;;;;;;22.90;49.90;;;;;;5068267;28;20269;-58
2022/06/23 09:47:19;;;;;;;;;;;22.90;50.00;;;;;;5063993;28;20369;-57
2022/06/23 09:53:03;;;;;;;;;;;23.00;50.00;;;;;;5110737;27;19934;-55
2022/06/23 09:55:34;;;;;;;;;;;23.00;50.00;;;;;;5122281;28;19984;-56
2022/06/23 09:58:12;;;;;;;;;;;23.00;49.90;;;;;;5116149;27;19939;-56
2022/06/23 10:00:42;;;;;;;;;;;23.00;49.90;;;;;;5104701;27;20007;-54
2022/06/23 10:03:13;;;;;;;;;;;23.00;49.90;;;;;;5114730;27;19998;-57
2022/06/23 10:05:44;;;;;;;;;;;23.00;49.90;;;;;;5111710;27;19924;-56
2022/06/23 10:08:15;;;;;;;;;;;23.00;49.80;;;;;;5117129;27;19923;-56
2022/06/23 10:10:47;;;;;;;;;;;23.00;49.80;;;;;;5115420;27;19949;-60
2022/06/23 10:13:25;;;;;;;;;;;23.00;49.80;;;;;;5123087;27;20302;-57
2022/06/23 10:15:56;;;;;;;;;;;23.00;49.70;;;;;;5109576;27;19977;-54
2022/06/23 10:18:27;;;;;;;;;;;23.00;49.70;;;;;;5113096;27;19926;-55
2022/06/23 10:20:56;;;;;;;;;;;23.00;49.70;;;;;;5148255;27;19928;-56
2022/06/23 10:23:32;;;;;;;;;;;23.10;49.70;;;;;;5113121;27;19919;-57
2022/06/23 10:26:06;;;;;;;;;;;23.10;49.60;;;;;;5148095;27;19949;-53
2022/06/23 10:28:45;;;;;;;;;;;23.10;49.60;;;;;;5112222;27;19946;-47
2022/06/23 10:31:14;;;;;;;;;;;23.10;49.60;;;;;;5129490;27;19919;-51
2022/06/23 10:33:55;;;;;;;;;;;23.10;49.50;;;;;;5119152;28;20333;-50
2022/06/23 10:36:27;;;;;;;;;;;23.10;49.50;;;;;;5122442;27;19976;-48
2022/06/23 10:38:59;;;;;;;;;;;23.10;49.40;;;;;;5117840;27;19939;-49
2022/06/23 10:41:40;;;;;;;;;;;23.10;49.40;;;;;;5108643;27;19919;-48
2022/06/23 10:44:11;;;;;;;;;;;23.10;49.40;;;;;;5107454;27;19985;-56
2022/06/23 10:46:40;;;;;;;;;;;23.10;49.30;;;;;;5111400;28;19927;-51
2022/06/23 10:49:21;;;;;;;;;;;23.10;49.30;;;;;;5107287;28;19935;-47
2022/06/23 10:51:56;;;;;;;;;;;23.10;49.30;;;;;;5119951;27;20365;-48
2022/06/23 10:57:49;;;;;;;;;;;23.10;49.30;;;;;;5118873;27;19911;-48
2022/06/23 11:00:16;;;;;;;;;;;23.10;49.30;;;;;;5093739;28;19920;-53
2022/06/23 11:03:10;;;;;;;;;;;23.10;49.30;;;;;;5106464;28;19959;-50
2022/06/23 11:05:45;;;;;;;;;;;23.10;49.30;;;;;;5092049;28;19920;-56
2022/06/23 11:08:30;;;;;;;;;;;23.10;49.30;;;;;;5101945;28;19975;-56
2022/06/23 11:11:00;;;;;;;;;;;23.10;49.30;;;;;;5105420;27;19920;-53
2022/06/23 11:13:31;;;;;;;;;;;23.10;49.30;;;;;;5101192;28;19924;-55
2022/06/23 11:16:02;;;;;;;;;;;23.10;49.20;;;;;;5097547;28;19920;-56
2022/06/23 11:18:35;;;;;;;;;;;23.10;49.10;;;;;;5099308;28;19973;-54
2022/06/23 11:21:05;;;;;;;;;;;23.10;49.00;;;;;;5097403;28;19926;-56
2022/06/23 11:23:35;;;;;;;;;;;23.20;49.00;;;;;;5116911;28;19985;-54
2022/06/23 11:26:03;;;;;;;;;;;23.20;49.00;;;;;;5127205;27;19920;-56
2022/06/23 11:28:35;;;;;;;;;;;23.20;48.90;;;;;;5113307;27;19924;-55
2022/06/23 11:31:05;;;;;;;;;;;23.20;48.90;;;;;;5104710;28;19920;-53
2022/06/23 11:33:39;;;;;;;;;;;23.30;48.90;;;;;;5094270;28;19950;-54
2022/06/23 11:36:18;;;;;;;;;;;23.30;48.90;;;;;;5099526;28;19931;-54
2022/06/23 11:38:49;;;;;;;;;;;23.30;48.80;;;;;;5116547;28;19924;-56
2022/06/23 11:41:23;;;;;;;;;;;23.30;48.70;;;;;;5099956;28;20329;-56
2022/06/23 11:43:56;;;;;;;;;;;23.30;48.60;;;;;;5110949;28;20292;-54
2022/06/23 11:46:24;;;;;;;;;;;23.30;48.50;;;;;;5119273;27;19946;-56
2022/06/23 11:48:55;;;;;;;;;;;23.30;48.50;;;;;;5112392;27;20018;-57
2022/06/23 11:51:25;;;;;;;;;;;23.40;48.60;;;;;;5110451;27;20286;-53
2022/06/23 11:53:55;;;;;;;;;;;23.40;48.40;;;;;;5100209;28;20365;-56
2022/06/23 11:56:25;;;;;;;;;;;23.40;48.30;;;;;;5113144;27;19959;-55
2022/06/23 11:58:57;;;;;;;;;;;23.40;48.20;;;;;;5132441;27;19930;-56
2022/06/23 12:01:24;;;;;;;;;;;23.40;48.10;;;;;;5100330;28;20026;-55
2022/06/23 12:04:06;;;;;;;;;;;23.40;48.00;;;;;;5120900;27;20423;-55
2022/06/23 12:06:36;;;;;;;;;;;23.40;47.80;;;;;;5100932;28;19941;-56
2022/06/23 12:09:05;;;;;;;;;;;23.40;47.80;;;;;;5088006;28;20352;-56
2022/06/23 12:11:32;;;;;;;;;;;23.50;47.90;;;;;;5109633;28;19936;-56
2022/06/23 12:14:00;;;;;;;;;;;23.50;47.70;;;;;;5104660;28;19920;-55
2022/06/23 12:16:27;;;;;;;;;;;23.50;47.50;;;;;;5107189;28;19930;-56
2022/06/23 12:18:54;;;;;;;;;;;23.50;47.50;;;;;;5107137;28;20288;-57
2022/06/23 12:21:25;;;;;;;;;;;23.50;47.50;;;;;;5097136;28;19920;-54
2022/06/23 12:23:53;;;;;;;;;;;23.50;47.40;;;;;;5087373;28;19945;-54
2022/06/23 12:26:21;;;;;;;;;;;23.50;47.40;;;;;;5107558;28;19955;-55
2022/06/23 12:28:48;;;;;;;;;;;23.60;47.30;;;;;;5106287;28;19920;-55
2022/06/23 12:31:22;;;;;;;;;;;23.60;47.40;;;;;;5085312;28;19984;-55
2022/06/23 12:33:51;;;;;;;;;;;23.60;47.30;;;;;;5105775;28;20248;-55
2022/06/23 12:36:21;;;;;;;;;;;23.60;47.10;;;;;;5090652;28;19920;-55
2022/06/23 12:38:48;;;;;;;;;;;23.60;47.10;;;;;;5086075;28;19947;-55
2022/06/23 12:41:16;;;;;;;;;;;23.60;47.00;;;;;;5087867;28;19982;-56
2022/06/23 12:43:46;;;;;;;;;;;23.60;47.00;;;;;;5085456;28;20335;-56
2022/06/23 12:46:14;;;;;;;;;;;23.60;46.90;;;;;;5089890;28;19930;-54
2022/06/23 12:48:47;;;;;;;;;;;23.60;46.80;;;;;;5088123;28;19938;-54
2022/06/23 12:51:16;;;;;;;;;;;23.60;46.90;;;;;;5092603;28;20343;-56
2022/06/23 12:53:54;;;;;;;;;;;23.60;47.00;;;;;;5099570;28;19924;-56
2022/06/23 12:56:29;;;;;;;;;;;23.60;47.00;;;;;;5100273;27;20007;-51
2022/06/23 12:58:56;;;;;;;;;;;23.60;47.10;;;;;;5113391;27;19967;-55
2022/06/23 13:01:32;;;;;;;;;;;23.60;47.10;;;;;;5089611;28;19975;-54
2022/06/23 13:04:01;;;;;;;;;;;23.60;47.10;;;;;;5109500;27;19923;-57
2022/06/23 13:06:33;;;;;;;;;;;23.60;47.20;;;;;;5106648;27;19977;-56
2022/06/23 13:09:11;;;;;;;;;;;23.60;47.20;;;;;;5109396;27;20019;-52
2022/06/23 13:11:40;;;;;;;;;;;23.60;47.30;;;;;;5097233;27;19919;-56
2022/06/23 13:14:08;;;;;;;;;;;23.60;47.20;;;;;;5088139;28;19943;-56
2022/06/23 13:16:38;;;;;;;;;;;23.60;47.30;;;;;;5107826;28;19968;-56
2022/06/23 13:19:07;;;;;;;;;;;23.60;47.20;;;;;;5098561;28;19930;-56
2022/06/23 13:21:34;;;;;;;;;;;23.60;47.20;;;;;;5083493;28;19920;-55
2022/06/23 13:24:01;;;;;;;;;;;23.60;47.20;;;;;;5093835;28;20235;-56
2022/06/23 13:26:30;;;;;;;;;;;23.60;47.20;;;;;;5101953;28;19923;-55
2022/06/23 13:28:59;;;;;;;;;;;23.60;47.20;;;;;;5088050;28;19984;-54
2022/06/23 13:31:25;;;;;;;;;;;23.60;47.10;;;;;;5114588;27;19920;-56
2022/06/23 13:33:53;;;;;;;;;;;23.60;47.00;;;;;;5102337;28;19919;-55
2022/06/23 13:36:24;;;;;;;;;;;23.60;47.00;;;;;;5105870;28;19920;-56
2022/06/23 13:38:54;;;;;;;;;;;23.60;46.90;;;;;;5104888;27;19967;-53
2022/06/23 13:41:22;;;;;;;;;;;23.60;46.90;;;;;;5105397;28;19930;-56
2022/06/23 13:43:51;;;;;;;;;;;23.60;46.80;;;;;;5090231;28;19920;-56
2022/06/23 13:46:21;;;;;;;;;;;23.60;46.80;;;;;;5104839;28;20333;-56
2022/06/23 13:48:48;;;;;;;;;;;23.60;46.80;;;;;;5115305;27;20353;-56
2022/06/23 13:51:16;;;;;;;;;;;23.60;46.80;;;;;;5106171;27;19972;-56
2022/06/23 13:53:46;;;;;;;;;;;23.60;46.80;;;;;;5090763;28;20198;-54
2022/06/23 13:56:16;;;;;;;;;;;23.60;46.70;;;;;;5107552;28;19923;-56
2022/06/23 13:58:44;;;;;;;;;;;23.60;46.70;;;;;;5103300;28;19932;-56
2022/06/23 14:01:13;;;;;;;;;;;23.60;46.60;;;;;;5101908;28;19931;-55
2022/06/23 14:03:41;;;;;;;;;;;23.60;46.60;;;;;;5099097;27;19984;-56
2022/06/23 14:06:10;;;;;;;;;;;23.60;46.60;;;;;;5087525;28;19969;-56
2022/06/23 14:08:37;;;;;;;;;;;23.60;46.60;;;;;;5103804;28;19949;-54
2022/06/23 14:11:06;;;;;;;;;;;23.60;46.60;;;;;;5123552;27;19963;-55
2022/06/23 14:13:33;;;;;;;;;;;23.50;46.50;;;;;;5087611;28;19927;-56
2022/06/23 14:16:01;;;;;;;;;;;23.60;46.50;;;;;;5104455;27;19920;-56
2022/06/23 14:18:32;;;;;;;;;;;23.60;46.50;;;;;;5090961;28;19976;-54
2022/06/23 14:21:00;;;;;;;;;;;23.60;46.50;;;;;;5099859;28;19956;-54
2022/06/23 14:23:29;;;;;;;;;;;23.60;46.50;;;;;;5127404;27;19945;-56
2022/06/23 14:25:57;;;;;;;;;;;23.60;46.40;;;;;;5118928;27;19963;-56
2022/06/23 14:28:26;;;;;;;;;;;23.60;46.40;;;;;;5096479;28;19924;-55
2022/06/23 14:30:54;;;;;;;;;;;23.60;46.40;;;;;;5086399;28;19919;-55
2022/06/23 14:33:22;;;;;;;;;;;23.60;46.40;;;;;;5102590;28;20356;-56
2022/06/23 14:35:50;;;;;;;;;;;23.60;46.40;;;;;;5125062;27;19958;-55
2022/06/23 14:38:19;;;;;;;;;;;23.60;46.30;;;;;;5117951;27;19942;-55
2022/06/23 14:40:48;;;;;;;;;;;23.60;46.20;;;;;;5105055;27;19923;-55
2022/06/23 14:43:21;;;;;;;;;;;23.60;46.30;;;;;;5083557;28;19923;-57